createdAt,value
2022-11-27T00:01:46.018Z,11.68
2022-11-27T00:06:47.610Z,13.77
2022-11-27T00:11:49.192Z,15.32
2022-11-27T00:16:51.042Z,17.90
2022-11-27T00:21:52.627Z,15.18
2022-11-27T00:26:54.205Z,18.25
2022-11-27T00:31:57.482Z,14.65
2022-11-27T00:36:59.052Z,17.13
2022-11-27T00:42:00.830Z,13.05
2022-11-27T00:47:02.479Z,15.75
2022-11-27T00:52:04.260Z,11.23
2022-11-27T00:57:06.156Z,10.65
2022-11-27T01:02:07.832Z,11.07
2022-11-27T01:07:09.539Z,11.75
2022-11-27T01:12:11.207Z,13.05
2022-11-27T01:17:12.964Z,18.25
2022-11-27T01:22:14.569Z,17.92
2022-11-27T01:27:16.158Z,16.38
2022-11-27T01:32:17.762Z,10.75
2022-11-27T01:37:19.772Z,10.30
2022-11-27T01:42:21.352Z,12.10
2022-11-27T01:47:44.156Z,12.77
2022-11-27T01:52:50.616Z,16.33
2022-11-27T01:57:58.445Z,16.42
2022-11-27T02:03:00.105Z,15.18
2022-11-27T02:08:07.270Z,12.45
2022-11-27T02:13:21.653Z,16.48
2022-11-27T02:18:48.757Z,10.75
2022-11-27T02:24:13.144Z,10.35
2022-11-27T02:29:19.825Z,13.68
2022-11-27T02:34:43.125Z,12.35
2022-11-27T02:40:01.558Z,10.82
2022-11-27T02:45:12.275Z,10.90
2022-11-27T02:50:19.973Z,17.23
2022-11-27T02:55:26.205Z,13.57
2022-11-27T03:00:30.079Z,14.90
2022-11-27T03:05:36.203Z,11.65
2022-11-27T03:10:55.453Z,13.43
2022-11-27T03:21:29.044Z,14.30
2022-11-27T03:26:31.647Z,12.30
2022-11-27T03:31:33.393Z,11.80
2022-11-27T03:36:35.152Z,14.75
2022-11-27T03:41:58.660Z,12.90
2022-11-27T03:47:26.509Z,17.70
2022-11-27T03:52:49.253Z,8.38
2022-11-27T03:58:01.124Z,15.77
2022-11-27T04:03:04.332Z,17.20
2022-11-27T04:08:06.229Z,13.57
2022-11-27T04:13:07.841Z,14.25
2022-11-27T04:18:09.421Z,10.50
2022-11-27T04:23:11.188Z,17.65
2022-11-27T04:28:12.760Z,12.20
2022-11-27T04:33:14.503Z,19.15
2022-11-27T04:38:16.294Z,16.50
2022-11-27T04:43:17.948Z,11.55
2022-11-27T04:48:19.524Z,18.30
2022-11-27T04:53:21.194Z,16.08
2022-11-27T04:58:22.808Z,20.80
2022-11-27T05:03:24.432Z,29.83
2022-11-27T05:08:26.362Z,30.88
2022-11-27T05:13:28.014Z,21.15
2022-11-27T05:18:29.826Z,17.10
2022-11-27T05:23:32.339Z,14.05
2022-11-27T05:28:33.919Z,16.90
2022-11-27T05:33:35.700Z,13.10
2022-11-27T05:38:37.308Z,13.02
2022-11-27T05:43:39.137Z,18.17
2022-11-27T05:48:41.116Z,13.82
2022-11-27T05:53:42.871Z,12.45
2022-11-27T05:58:46.779Z,16.50
2022-11-27T06:03:48.532Z,12.63
2022-11-27T06:08:50.447Z,13.50
2022-11-27T06:13:52.041Z,15.88
2022-11-27T06:18:55.887Z,14.95
2022-11-27T06:23:57.883Z,11.07
2022-11-27T06:29:01.004Z,12.55
2022-11-27T06:34:04.252Z,15.80
2022-11-27T06:39:08.107Z,13.52
2022-11-27T06:44:10.648Z,10.80
2022-11-27T06:49:12.377Z,16.83
2022-11-27T06:54:13.967Z,14.57
2022-11-27T06:59:16.442Z,15.98
2022-11-27T07:04:18.127Z,12.60
2022-11-27T07:09:19.749Z,13.23
2022-11-27T07:14:21.457Z,11.25
2022-11-27T07:19:23.056Z,11.55
2022-11-27T07:24:24.730Z,17.10
2022-11-27T07:29:26.603Z,18.75
2022-11-27T07:34:28.261Z,14.63
2022-11-27T07:40:00.362Z,16.23
2022-11-27T07:44:51.693Z,16.52
2022-11-27T07:49:55.130Z,12.38
2022-11-27T07:54:56.764Z,14.68
2022-11-27T07:59:58.347Z,11.95
2022-11-27T08:05:00.079Z,13.52
2022-11-27T08:10:01.765Z,12.80
2022-11-27T08:15:05.700Z,14.68
2022-11-27T08:20:07.954Z,17.80
2022-11-27T08:25:09.634Z,16.88
2022-11-27T08:30:11.432Z,20.05
2022-11-27T08:35:13.021Z,24.50
2022-11-27T08:40:14.918Z,26.23
2022-11-27T08:45:16.583Z,22.13
2022-11-27T08:50:18.655Z,25.95
2022-11-27T08:55:20.287Z,31.60
2022-11-27T09:00:27.594Z,29.90
2022-11-27T09:05:30.636Z,31.08
2022-11-27T09:10:32.536Z,34.53
2022-11-27T09:15:34.310Z,26.02
2022-11-27T09:20:36.140Z,25.15
2022-11-27T09:25:39.524Z,20.70
2022-11-27T09:30:41.107Z,18.45
2022-11-27T09:35:42.959Z,18.88
2022-11-27T09:40:49.124Z,18.38
2022-11-27T09:46:00.840Z,19.65
2022-11-27T09:51:11.589Z,18.98
2022-11-27T09:56:17.664Z,19.55
2022-11-27T10:01:32.138Z,17.77
2022-11-27T10:06:56.058Z,30.77
2022-11-27T10:12:14.490Z,21.98
2022-11-27T10:17:22.654Z,21.53
2022-11-27T10:22:51.065Z,16.60
2022-11-27T10:28:12.952Z,19.45
2022-11-27T10:33:20.317Z,18.63
2022-11-27T10:38:28.029Z,19.58
2022-11-27T10:43:29.695Z,18.35
2022-11-27T10:48:32.699Z,19.80
2022-11-27T10:53:37.242Z,16.00
2022-11-27T10:58:46.412Z,15.18
2022-11-27T11:03:48.193Z,20.60
2022-11-27T11:09:03.954Z,24.85
2022-11-27T11:14:22.917Z,19.23
2022-11-27T11:19:34.571Z,19.02
2022-11-27T11:24:42.363Z,21.38
2022-11-27T11:29:51.736Z,16.38
2022-11-27T11:35:03.608Z,17.10
2022-11-27T11:40:16.280Z,17.95
2022-11-27T11:45:20.150Z,21.25
2022-11-27T11:50:42.722Z,14.95
2022-11-27T11:56:17.913Z,18.15
2022-11-27T12:01:58.959Z,14.57
2022-11-27T12:07:24.796Z,18.40
2022-11-27T12:12:55.278Z,12.50
2022-11-27T12:18:32.991Z,13.68
2022-11-27T12:24:05.577Z,15.07
2022-11-27T12:29:35.885Z,17.98
2022-11-27T12:34:57.930Z,15.65
2022-11-27T12:40:14.508Z,13.07
2022-11-27T12:45:21.144Z,19.02
2022-11-27T12:50:32.674Z,13.57
2022-11-27T12:55:36.327Z,12.02
2022-11-27T13:00:42.617Z,13.07
2022-11-27T13:05:50.001Z,11.50
2022-11-27T13:11:01.660Z,11.60
2022-11-27T13:16:19.805Z,11.70
2022-11-27T13:21:29.337Z,11.88
2022-11-27T13:26:44.738Z,12.73
2022-11-27T13:31:53.862Z,12.63
2022-11-27T13:42:04.690Z,11.38
2022-11-27T13:47:16.298Z,13.52
2022-11-27T13:52:21.141Z,14.27
2022-11-27T13:57:24.614Z,15.07
2022-11-27T14:02:59.248Z,12.57
2022-11-27T14:08:00.978Z,14.48
2022-11-27T14:13:06.109Z,11.15
2022-11-27T14:18:19.521Z,13.60
2022-11-27T14:23:33.536Z,10.20
2022-11-27T14:28:37.013Z,8.07
2022-11-27T14:34:07.372Z,14.02
2022-11-27T14:39:06.136Z,8.65
2022-11-27T14:44:15.439Z,12.27
2022-11-27T14:49:21.151Z,10.70
2022-11-27T14:54:33.181Z,9.60
2022-11-27T14:59:34.800Z,9.15
2022-11-27T15:04:38.878Z,11.73
2022-11-27T15:09:45.944Z,12.85
2022-11-27T15:15:06.489Z,11.05
2022-11-27T15:20:15.731Z,9.35
2022-11-27T15:25:41.052Z,7.47
2022-11-27T15:30:45.864Z,13.20
2022-11-27T15:35:51.273Z,13.90
2022-11-27T15:41:00.818Z,10.73
2022-11-27T15:46:06.267Z,11.57
2022-11-27T15:51:07.899Z,11.35
2022-11-27T15:56:09.600Z,8.77
2022-11-27T16:01:11.919Z,12.02
2022-11-27T16:06:13.646Z,11.98
2022-11-27T16:11:19.449Z,9.90
2022-11-27T16:16:21.367Z,10.43
2022-11-27T16:21:29.138Z,12.73
2022-11-27T16:26:31.786Z,16.47
2022-11-27T16:31:33.527Z,12.18
2022-11-27T16:36:37.637Z,12.52
2022-11-27T16:41:39.427Z,11.63
2022-11-27T16:46:43.755Z,11.10
2022-11-27T16:51:45.768Z,12.52
2022-11-27T16:56:48.553Z,15.90
2022-11-27T17:01:51.552Z,15.20
2022-11-27T17:06:53.269Z,14.52
2022-11-27T17:11:55.252Z,17.90
2022-11-27T17:17:00.320Z,14.50
2022-11-27T17:22:04.387Z,14.57
2022-11-27T17:27:09.095Z,13.50
2022-11-27T17:32:12.946Z,26.30
2022-11-27T17:37:15.206Z,30.88
2022-11-27T17:42:22.420Z,29.25
2022-11-27T17:47:24.634Z,22.15
2022-11-27T17:52:26.211Z,46.25
2022-11-27T17:57:27.867Z,47.47
2022-11-27T18:02:30.230Z,53.08
2022-11-27T18:07:32.639Z,66.93
2022-11-27T18:12:34.312Z,73.05
2022-11-27T18:17:36.915Z,85.03
2022-11-27T18:22:38.603Z,78.28
2022-11-27T18:27:41.128Z,79.43
2022-11-27T18:32:42.814Z,84.60
2022-11-27T18:37:44.459Z,114.00
2022-11-27T18:42:46.040Z,91.78
2022-11-27T18:47:47.688Z,74.70
2022-11-27T18:52:50.452Z,124.55
2022-11-27T18:57:53.187Z,71.00
2022-11-27T19:02:54.860Z,105.78
2022-11-27T19:07:56.578Z,81.45
2022-11-27T19:12:58.233Z,73.15
2022-11-27T19:17:59.863Z,75.35
2022-11-27T19:23:02.323Z,79.90
2022-11-27T19:28:06.015Z,70.75
2022-11-27T19:33:08.309Z,69.75
2022-11-27T19:38:09.897Z,71.68
2022-11-27T19:43:11.748Z,70.13
2022-11-27T19:48:13.523Z,60.17
2022-11-27T19:53:15.500Z,66.30
2022-11-27T19:58:17.391Z,61.88
2022-11-27T20:03:19.260Z,70.68
2022-11-27T20:08:21.014Z,61.78
2022-11-27T20:13:23.205Z,60.42
2022-11-27T20:18:27.880Z,62.83
2022-11-27T20:23:29.731Z,69.50
2022-11-27T20:28:31.588Z,71.03
2022-11-27T20:33:33.913Z,66.28
2022-11-27T20:38:35.550Z,59.30
2022-11-27T20:43:37.836Z,55.05
2022-11-27T20:48:39.786Z,61.08
2022-11-27T20:53:43.717Z,63.63
2022-11-27T20:58:46.946Z,58.00
2022-11-27T21:03:50.508Z,50.97
2022-11-27T21:08:53.676Z,55.53
2022-11-27T21:14:01.044Z,59.35
2022-11-27T21:19:06.448Z,67.10
2022-11-27T21:24:08.416Z,65.93
2022-11-27T21:29:12.454Z,60.38
2022-11-27T21:34:15.357Z,55.22
2022-11-27T21:39:20.539Z,55.63
2022-11-27T21:44:24.059Z,52.17
2022-11-27T21:49:25.645Z,51.80
2022-11-27T21:54:29.406Z,50.33
2022-11-27T21:59:31.485Z,57.10
2022-11-27T22:04:33.366Z,55.30
2022-11-27T22:09:35.037Z,64.72
2022-11-27T22:14:36.628Z,61.50
2022-11-27T22:19:42.311Z,66.68
2022-11-27T22:24:44.238Z,74.05
2022-11-27T22:29:46.020Z,62.60
2022-11-27T22:34:48.704Z,72.68
2022-11-27T22:39:50.335Z,70.03
2022-11-27T22:44:52.121Z,68.47
2022-11-27T22:49:53.815Z,66.68
2022-11-27T22:54:55.895Z,65.45
2022-11-27T22:59:57.931Z,64.75
2022-11-27T23:04:59.512Z,73.53
2022-11-27T23:10:01.205Z,67.65
2022-11-27T23:15:03.155Z,77.28
2022-11-27T23:20:05.574Z,74.20
2022-11-27T23:25:07.758Z,67.63
2022-11-27T23:30:09.829Z,68.18
2022-11-27T23:35:11.700Z,66.55
2022-11-27T23:40:13.711Z,68.25
2022-11-27T23:45:15.386Z,72.03
2022-11-27T23:50:17.526Z,62.80
2022-11-27T23:55:19.228Z,74.97
